createdAt,value
2019-05-15T00:01:59.083Z,23.37
2019-05-15T00:04:28.252Z,23.40
2019-05-15T00:06:58.245Z,23.00
2019-05-15T00:09:28.662Z,23.10
2019-05-15T00:11:59.058Z,23.10
2019-05-15T00:14:28.916Z,23.40
2019-05-15T00:16:58.707Z,23.33
2019-05-15T00:19:28.456Z,23.10
2019-05-15T00:21:58.544Z,24.30
2019-05-15T00:24:28.773Z,23.67
2019-05-15T00:26:58.834Z,23.37
2019-05-15T00:29:29.006Z,22.70
2019-05-15T00:31:59.016Z,22.10
2019-05-15T00:34:28.635Z,23.30
2019-05-15T00:36:58.756Z,23.30
2019-05-15T00:39:28.535Z,22.67
2019-05-15T00:41:59.022Z,23.80
2019-05-15T00:44:28.399Z,22.77
2019-05-15T00:46:58.264Z,24.50
2019-05-15T00:49:29.014Z,22.50
2019-05-15T00:51:59.383Z,23.33
2019-05-15T00:54:28.858Z,23.40
2019-05-15T00:56:58.057Z,22.40
2019-05-15T00:59:30.030Z,22.87
2019-05-15T01:01:59.424Z,23.50
2019-05-15T01:04:28.897Z,23.93
2019-05-15T01:06:58.884Z,23.23
2019-05-15T01:09:29.215Z,23.37
2019-05-15T01:11:58.773Z,22.53
2019-05-15T01:14:28.200Z,23.23
2019-05-15T01:16:58.248Z,23.13
2019-05-15T01:19:28.770Z,23.30
2019-05-15T01:21:58.846Z,24.03
2019-05-15T01:24:28.271Z,23.73
2019-05-15T01:26:58.493Z,24.00
2019-05-15T01:29:40.932Z,24.00
2019-05-15T01:31:59.470Z,23.97
2019-05-15T01:34:29.493Z,24.40
2019-05-15T01:36:59.221Z,25.17
2019-05-15T01:39:29.107Z,24.00
2019-05-15T01:41:59.125Z,23.33
2019-05-15T01:44:28.884Z,24.03
2019-05-15T01:46:59.017Z,23.97
2019-05-15T01:49:29.410Z,24.13
2019-05-15T01:51:58.724Z,24.40
2019-05-15T01:54:29.006Z,23.73
2019-05-15T01:56:58.736Z,24.70
2019-05-15T01:59:28.498Z,23.77
2019-05-15T02:01:59.031Z,23.00
2019-05-15T02:04:29.563Z,23.43
2019-05-15T02:06:59.295Z,23.33
2019-05-15T02:09:29.237Z,22.90
2019-05-15T02:11:58.393Z,24.30
2019-05-15T02:14:28.475Z,24.27
2019-05-15T02:16:59.099Z,23.13
2019-05-15T02:19:28.850Z,24.63
2019-05-15T02:21:59.121Z,22.70
2019-05-15T02:24:29.112Z,23.10
2019-05-15T02:26:58.853Z,23.97
2019-05-15T02:29:28.955Z,24.10
2019-05-15T02:31:59.419Z,23.13
2019-05-15T02:34:30.314Z,23.40
2019-05-15T02:37:00.315Z,23.40
2019-05-15T02:39:29.915Z,24.40
2019-05-15T02:42:00.634Z,23.33
2019-05-15T02:44:30.472Z,23.87
2019-05-15T02:47:00.335Z,22.97
2019-05-15T02:49:30.096Z,23.93
2019-05-15T02:52:00.398Z,22.33
2019-05-15T02:54:30.362Z,22.67
2019-05-15T02:56:59.957Z,22.23
2019-05-15T02:59:29.364Z,23.27
2019-05-15T03:01:59.577Z,22.07
2019-05-15T03:04:29.355Z,22.60
2019-05-15T03:07:00.481Z,21.17
2019-05-15T03:09:30.258Z,22.70
2019-05-15T03:11:59.618Z,21.80
2019-05-15T03:14:29.283Z,22.23
2019-05-15T03:16:59.682Z,22.93
2019-05-15T03:19:30.073Z,22.33
2019-05-15T03:22:00.155Z,21.90
2019-05-15T03:24:29.749Z,20.87
2019-05-15T03:26:59.432Z,21.33
2019-05-15T03:29:31.328Z,21.50
2019-05-15T03:32:15.126Z,20.17
2019-05-15T03:34:38.430Z,20.23
2019-05-15T03:37:04.022Z,19.97
2019-05-15T03:39:33.456Z,20.40
2019-05-15T03:42:02.692Z,20.63
2019-05-15T03:44:32.184Z,20.43
2019-05-15T03:47:01.398Z,20.47
2019-05-15T03:49:30.783Z,18.47
2019-05-15T03:52:00.015Z,18.70
2019-05-15T03:54:29.577Z,19.73
2019-05-15T03:56:59.319Z,19.90
2019-05-15T03:59:29.651Z,18.60
2019-05-15T04:02:00.049Z,20.27
2019-05-15T04:04:29.849Z,18.67
2019-05-15T04:06:59.746Z,20.07
2019-05-15T04:09:29.589Z,19.70
2019-05-15T04:11:59.989Z,19.87
2019-05-15T04:14:29.794Z,20.10
2019-05-15T04:17:00.236Z,19.47
2019-05-15T04:19:29.906Z,18.63
2019-05-15T04:22:00.607Z,19.57
2019-05-15T04:24:31.860Z,19.60
2019-05-15T04:27:06.405Z,18.77
2019-05-15T04:29:34.710Z,17.53
2019-05-15T04:32:05.955Z,18.53
2019-05-15T04:34:35.706Z,18.63
2019-05-15T04:37:04.881Z,18.10
2019-05-15T04:39:34.142Z,18.83
2019-05-15T04:42:03.314Z,18.10
2019-05-15T04:44:32.549Z,18.77
2019-05-15T04:47:02.039Z,18.30
2019-05-15T04:49:31.848Z,18.63
2019-05-15T04:52:03.660Z,19.00
2019-05-15T04:54:31.969Z,19.50
2019-05-15T04:57:01.267Z,18.33
2019-05-15T04:59:30.430Z,19.37
2019-05-15T05:02:16.635Z,18.23
2019-05-15T05:04:31.782Z,17.83
2019-05-15T05:07:00.933Z,20.00
2019-05-15T05:09:30.280Z,19.33
2019-05-15T05:11:59.499Z,18.20
2019-05-15T05:14:28.660Z,19.60
2019-05-15T05:16:59.277Z,19.10
2019-05-15T05:19:28.830Z,18.80
2019-05-15T05:21:58.526Z,19.67
2019-05-15T05:24:28.169Z,21.27
2019-05-15T05:26:58.096Z,19.03
2019-05-15T05:29:28.042Z,18.83
2019-05-15T05:31:58.574Z,18.33
2019-05-15T05:34:28.393Z,18.43
2019-05-15T05:36:58.909Z,18.33
2019-05-15T05:39:29.423Z,18.10
2019-05-15T05:41:58.911Z,17.60
2019-05-15T05:44:29.125Z,17.23
2019-05-15T05:46:58.832Z,17.27
2019-05-15T05:49:29.342Z,17.33
2019-05-15T05:51:58.835Z,17.53
2019-05-15T05:54:28.801Z,16.97
2019-05-15T05:56:58.670Z,17.27
2019-05-15T05:59:28.477Z,17.23
2019-05-15T06:01:58.921Z,17.47
2019-05-15T06:04:28.566Z,17.37
2019-05-15T06:07:07.048Z,17.30
2019-05-15T06:09:28.617Z,17.23
2019-05-15T06:11:58.358Z,16.37
2019-05-15T06:14:28.871Z,17.23
2019-05-15T06:16:58.952Z,16.17
2019-05-15T06:19:31.011Z,16.60
2019-05-15T06:22:00.978Z,15.73
2019-05-15T06:24:30.605Z,17.03
2019-05-15T06:27:00.238Z,16.47
2019-05-15T06:29:29.398Z,18.37
2019-05-15T06:31:59.111Z,17.40
2019-05-15T06:34:28.645Z,16.57
2019-05-15T06:36:58.865Z,16.00
2019-05-15T06:39:28.430Z,16.47
2019-05-15T06:41:58.932Z,15.27
2019-05-15T06:44:28.404Z,15.23
2019-05-15T06:46:58.711Z,14.93
2019-05-15T06:49:28.632Z,15.20
2019-05-15T06:51:58.286Z,14.93
2019-05-15T06:54:28.415Z,15.43
2019-05-15T06:56:58.421Z,14.37
2019-05-15T06:59:29.094Z,13.73
2019-05-15T07:01:59.328Z,13.87
2019-05-15T07:04:28.941Z,14.67
2019-05-15T07:06:58.728Z,13.97
2019-05-15T07:09:28.526Z,13.40
2019-05-15T07:11:59.053Z,13.23
2019-05-15T07:14:29.109Z,12.03
2019-05-15T07:16:59.255Z,12.47
2019-05-15T07:19:28.940Z,12.00
2019-05-15T07:21:58.215Z,11.63
2019-05-15T07:24:28.920Z,12.07
2019-05-15T07:26:59.208Z,12.03
2019-05-15T07:29:29.479Z,11.80
2019-05-15T07:31:58.747Z,11.70
2019-05-15T07:34:28.337Z,12.10
2019-05-15T07:36:59.115Z,11.17
2019-05-15T07:39:28.979Z,11.33
2019-05-15T07:41:58.508Z,10.83
2019-05-15T07:44:28.228Z,11.17
2019-05-15T07:46:58.454Z,11.27
2019-05-15T07:49:28.876Z,11.47
2019-05-15T07:51:59.228Z,11.57
2019-05-15T07:54:28.990Z,12.80
2019-05-15T07:56:58.645Z,11.00
2019-05-15T07:59:28.131Z,11.40
2019-05-15T08:01:58.337Z,12.23
2019-05-15T08:04:30.697Z,12.00
2019-05-15T08:06:59.350Z,11.77
2019-05-15T08:09:29.712Z,12.17
2019-05-15T08:12:02.670Z,12.73
2019-05-15T08:14:29.795Z,11.17
2019-05-15T08:16:59.397Z,12.30
2019-05-15T08:19:29.038Z,11.93
2019-05-15T08:21:58.331Z,11.70
2019-05-15T08:24:29.731Z,12.33
2019-05-15T08:26:58.672Z,13.20
2019-05-15T08:29:28.809Z,12.70
2019-05-15T08:31:59.012Z,11.70
2019-05-15T08:34:28.828Z,12.53
2019-05-15T08:36:58.996Z,11.70
2019-05-15T08:39:28.639Z,12.10
2019-05-15T08:41:58.432Z,12.63
2019-05-15T08:44:29.341Z,12.37
2019-05-15T08:46:59.198Z,13.13
2019-05-15T08:49:28.648Z,11.57
2019-05-15T08:51:58.506Z,12.60
2019-05-15T08:54:29.019Z,11.90
2019-05-15T08:56:59.271Z,13.80
2019-05-15T08:59:29.497Z,12.10
2019-05-15T09:01:59.200Z,11.93
2019-05-15T09:04:34.422Z,12.47
2019-05-15T09:07:01.292Z,12.87
2019-05-15T09:09:30.346Z,12.63
2019-05-15T09:11:59.667Z,12.67
2019-05-15T09:14:28.836Z,13.03
2019-05-15T09:16:58.311Z,13.00
2019-05-15T09:19:28.065Z,12.73
2019-05-15T09:21:58.559Z,13.17
2019-05-15T09:24:28.610Z,12.67
2019-05-15T09:26:59.526Z,12.67
2019-05-15T09:29:28.967Z,12.20
2019-05-15T09:31:58.793Z,14.10
2019-05-15T09:34:45.027Z,13.47
2019-05-15T09:37:00.008Z,13.17
2019-05-15T09:39:29.582Z,15.13
2019-05-15T09:41:58.877Z,14.10
2019-05-15T09:44:28.514Z,13.87
2019-05-15T09:46:58.458Z,13.43
2019-05-15T09:49:29.494Z,13.97
2019-05-15T09:51:58.953Z,14.20
2019-05-15T09:54:29.094Z,14.87
2019-05-15T09:56:59.769Z,14.47
2019-05-15T09:59:28.999Z,14.57
2019-05-15T10:01:58.895Z,14.47
2019-05-15T10:04:28.948Z,14.07
2019-05-15T10:06:58.610Z,14.93
2019-05-15T10:09:28.446Z,14.33
2019-05-15T10:11:57.948Z,14.20
2019-05-15T10:14:29.451Z,15.00
2019-05-15T10:16:58.473Z,13.63
2019-05-15T10:19:29.053Z,14.00
2019-05-15T10:21:59.491Z,14.27
2019-05-15T10:24:29.359Z,13.47
2019-05-15T10:26:58.583Z,14.03
2019-05-15T10:29:28.170Z,13.57
2019-05-15T10:31:58.222Z,13.57
2019-05-15T10:34:28.855Z,12.80
2019-05-15T10:36:58.927Z,11.83
2019-05-15T10:39:28.872Z,12.10
2019-05-15T10:41:59.134Z,12.47
2019-05-15T10:44:29.000Z,12.90
2019-05-15T10:46:58.564Z,15.50
2019-05-15T10:49:28.323Z,14.93
2019-05-15T10:51:57.759Z,16.60
2019-05-15T10:54:28.911Z,16.17
2019-05-15T10:57:00.538Z,15.40
2019-05-15T10:59:28.764Z,14.70
2019-05-15T11:01:59.107Z,12.53
2019-05-15T11:04:28.943Z,11.90
2019-05-15T11:06:58.707Z,11.30
2019-05-15T11:09:28.664Z,11.03
2019-05-15T11:11:58.514Z,10.37
2019-05-15T11:14:28.641Z,10.13
2019-05-15T11:16:59.030Z,10.17
2019-05-15T11:19:35.624Z,9.93
2019-05-15T11:22:00.201Z,9.43
2019-05-15T11:24:32.390Z,10.30
2019-05-15T11:27:00.813Z,10.00
2019-05-15T11:29:30.835Z,10.83
2019-05-15T11:32:00.043Z,10.50
2019-05-15T11:34:29.261Z,11.33
2019-05-15T11:36:59.399Z,11.20
2019-05-15T11:39:29.084Z,11.10
2019-05-15T11:41:58.256Z,11.30
2019-05-15T11:44:28.381Z,10.93
2019-05-15T11:46:58.656Z,10.50
2019-05-15T11:49:29.055Z,10.83
2019-05-15T11:52:00.671Z,12.13
2019-05-15T11:54:30.285Z,11.60
2019-05-15T11:56:59.904Z,9.97
2019-05-15T11:59:30.098Z,12.07
2019-05-15T12:01:59.846Z,11.50
2019-05-15T12:04:33.765Z,11.30
2019-05-15T12:07:02.605Z,10.90
2019-05-15T12:09:31.259Z,10.40
2019-05-15T12:12:00.504Z,10.80
2019-05-15T12:14:30.970Z,11.37
2019-05-15T12:17:08.840Z,11.07
2019-05-15T12:19:31.341Z,9.87
2019-05-15T12:22:00.506Z,11.10
2019-05-15T12:24:35.941Z,10.73
2019-05-15T12:27:13.898Z,10.23
2019-05-15T12:29:31.580Z,10.23
2019-05-15T12:32:20.158Z,10.73
2019-05-15T12:34:32.195Z,9.40
2019-05-15T12:37:01.357Z,10.10
2019-05-15T12:39:31.288Z,9.93
2019-05-15T12:59:41.249Z,9.50
2019-05-15T13:02:11.674Z,8.97
2019-05-15T13:04:41.118Z,7.90
2019-05-15T13:07:16.353Z,7.53
2019-05-15T13:09:41.549Z,8.03
2019-05-15T13:12:10.770Z,8.00
2019-05-15T13:14:40.203Z,7.93
2019-05-15T13:17:09.404Z,7.80
2019-05-15T13:19:38.885Z,8.17
2019-05-15T13:22:17.806Z,7.00
2019-05-15T13:24:39.231Z,6.77
2019-05-15T13:27:08.392Z,7.10
2019-05-15T13:29:37.553Z,7.67
2019-05-15T13:32:08.079Z,7.17
2019-05-15T13:34:38.926Z,7.30
2019-05-15T13:37:08.944Z,7.60
2019-05-15T13:39:39.119Z,7.27
2019-05-15T13:42:09.714Z,7.67
2019-05-15T13:44:38.884Z,8.00
2019-05-15T13:47:08.827Z,7.43
2019-05-15T13:49:38.643Z,8.23
2019-05-15T13:52:08.635Z,6.93
2019-05-15T13:54:38.120Z,8.83
2019-05-15T13:57:08.769Z,7.63
2019-05-15T13:59:39.122Z,8.17
2019-05-15T14:02:09.041Z,7.87
2019-05-15T14:04:38.863Z,8.03
2019-05-15T14:07:08.616Z,7.57
2019-05-15T14:09:44.416Z,7.50
2019-05-15T14:12:12.441Z,8.27
2019-05-15T14:14:40.527Z,8.20
2019-05-15T14:17:09.736Z,7.63
2019-05-15T14:19:39.634Z,8.40
2019-05-15T14:22:09.468Z,8.20
2019-05-15T14:24:38.834Z,8.10
2019-05-15T14:27:08.639Z,9.33
2019-05-15T14:29:38.457Z,9.47
2019-05-15T14:32:08.200Z,8.83
2019-05-15T14:34:38.144Z,8.97
2019-05-15T14:37:08.770Z,8.40
2019-05-15T14:39:38.667Z,8.33
2019-05-15T14:42:09.066Z,7.93
2019-05-15T14:44:38.993Z,9.10
2019-05-15T14:47:08.881Z,8.73
2019-05-15T14:49:44.993Z,8.80
2019-05-15T14:52:09.950Z,7.87
2019-05-15T14:54:39.708Z,8.30
2019-05-15T14:57:08.885Z,8.37
2019-05-15T14:59:38.273Z,8.47
2019-05-15T15:02:09.061Z,8.77
2019-05-15T15:04:39.373Z,9.03
2019-05-15T15:07:08.787Z,8.63
2019-05-15T15:09:40.239Z,9.43
2019-05-15T15:12:09.390Z,9.83
2019-05-15T15:14:39.471Z,11.33
2019-05-15T15:17:08.734Z,11.30
2019-05-15T15:19:38.832Z,11.63
2019-05-15T15:22:08.727Z,13.60
2019-05-15T15:24:38.971Z,9.47
2019-05-15T15:27:08.506Z,9.53
2019-05-15T15:29:39.714Z,9.40
2019-05-15T15:32:08.993Z,9.73
2019-05-15T15:34:38.784Z,9.30
2019-05-15T15:37:08.444Z,9.20
2019-05-15T15:39:38.649Z,9.60
2019-05-15T15:42:08.657Z,9.87
2019-05-15T15:44:38.403Z,10.47
2019-05-15T15:47:08.562Z,10.30
2019-05-15T15:49:38.822Z,10.23
2019-05-15T15:52:08.753Z,12.00
2019-05-15T15:54:39.577Z,10.80
2019-05-15T15:57:09.582Z,10.17
2019-05-15T15:59:39.012Z,12.40
2019-05-15T16:02:08.848Z,12.30
2019-05-15T16:04:39.237Z,13.83
2019-05-15T16:07:09.574Z,13.53
2019-05-15T16:09:39.642Z,14.90
2019-05-15T16:12:09.843Z,15.27
2019-05-15T16:14:39.382Z,15.57
2019-05-15T16:17:08.764Z,16.80
2019-05-15T16:19:39.169Z,16.27
2019-05-15T16:22:08.970Z,17.37
2019-05-15T16:24:38.741Z,17.80
2019-05-15T16:27:09.625Z,17.93
2019-05-15T16:29:40.086Z,18.50
2019-05-15T16:32:09.359Z,19.40
2019-05-15T16:34:39.611Z,19.87
2019-05-15T16:37:09.084Z,19.63
2019-05-15T16:39:38.551Z,20.80
2019-05-15T16:42:07.882Z,21.63
2019-05-15T16:44:38.565Z,21.27
2019-05-15T16:47:08.562Z,23.83
2019-05-15T16:49:39.039Z,30.83
2019-05-15T16:52:09.206Z,33.97
2019-05-15T16:54:38.891Z,43.67
2019-05-15T16:57:09.925Z,50.50
2019-05-15T16:59:39.484Z,56.80
2019-05-15T17:02:09.024Z,63.53
2019-05-15T17:04:38.961Z,78.67
2019-05-15T17:07:08.136Z,79.90
2019-05-15T17:09:38.737Z,81.13
2019-05-15T17:12:08.884Z,85.53
2019-05-15T17:14:38.854Z,92.00
2019-05-15T17:17:08.585Z,89.77
2019-05-15T17:19:37.855Z,91.43
2019-05-15T17:22:09.266Z,83.57
2019-05-15T17:24:38.824Z,85.30
2019-05-15T17:27:10.309Z,80.73
2019-05-15T17:29:39.108Z,74.20
2019-05-15T17:32:08.601Z,66.33
2019-05-15T17:34:38.103Z,68.87
2019-05-15T17:37:08.258Z,67.43
2019-05-15T17:39:40.932Z,71.03
2019-05-15T17:42:08.736Z,81.33
2019-05-15T17:44:38.342Z,79.60
2019-05-15T17:47:09.622Z,77.77
2019-05-15T17:49:39.460Z,81.97
2019-05-15T17:52:08.985Z,78.20
2019-05-15T17:54:38.719Z,82.60
2019-05-15T17:57:09.248Z,89.03
2019-05-15T17:59:39.128Z,85.90
2019-05-15T18:02:08.759Z,83.60
2019-05-15T18:04:38.977Z,77.47
2019-05-15T18:07:08.702Z,82.10
2019-05-15T18:09:50.297Z,88.80
2019-05-15T18:12:11.136Z,84.93
2019-05-15T18:14:40.604Z,96.00
2019-05-15T18:17:09.767Z,86.70
2019-05-15T18:19:39.365Z,89.13
2019-05-15T18:22:09.030Z,80.37
2019-05-15T18:24:38.660Z,86.60
2019-05-15T18:27:08.137Z,83.70
2019-05-15T18:29:38.742Z,81.13
2019-05-15T18:32:08.765Z,79.13
2019-05-15T18:34:39.566Z,74.40
2019-05-15T18:37:09.461Z,71.63
2019-05-15T18:39:39.099Z,73.53
2019-05-15T18:42:10.673Z,69.33
2019-05-15T18:44:40.870Z,60.53
2019-05-15T18:47:10.389Z,56.13
2019-05-15T18:49:39.627Z,60.77
2019-05-15T18:52:08.878Z,59.07
2019-05-15T18:54:38.749Z,53.03
2019-05-15T18:57:08.555Z,49.57
2019-05-15T18:59:37.861Z,49.77
2019-05-15T19:02:08.019Z,47.43
2019-05-15T19:04:38.352Z,44.50
2019-05-15T19:07:08.946Z,42.17
2019-05-15T19:09:38.661Z,42.67
2019-05-15T19:12:09.273Z,42.03
2019-05-15T19:14:39.631Z,39.73
2019-05-15T19:17:09.078Z,41.93
2019-05-15T19:19:38.791Z,41.03
2019-05-15T19:22:08.788Z,40.93
2019-05-15T19:24:40.223Z,42.93
2019-05-15T19:27:09.770Z,40.70
2019-05-15T19:29:38.984Z,40.53
2019-05-15T19:32:10.966Z,42.00
2019-05-15T19:34:39.719Z,41.13
2019-05-15T19:37:09.014Z,42.60
2019-05-15T19:39:38.625Z,43.30
2019-05-15T19:42:08.866Z,43.30
2019-05-15T19:44:38.472Z,42.30
2019-05-15T19:47:07.991Z,42.53
2019-05-15T19:49:37.798Z,43.27
2019-05-15T19:52:08.536Z,44.40
2019-05-15T19:54:38.088Z,48.10
2019-05-15T19:57:08.032Z,46.53
2019-05-15T19:59:38.358Z,46.13
2019-05-15T20:02:08.557Z,46.83
2019-05-15T20:04:38.513Z,47.40
2019-05-15T20:07:08.110Z,50.23
2019-05-15T20:09:38.366Z,48.43
2019-05-15T20:12:09.105Z,48.10
2019-05-15T20:14:38.679Z,49.07
2019-05-15T20:17:08.182Z,47.30
2019-05-15T20:19:38.246Z,47.77
2019-05-15T20:22:08.153Z,45.37
2019-05-15T20:24:38.224Z,47.57
2019-05-15T20:27:08.554Z,42.60
2019-05-15T20:29:38.400Z,46.93
2019-05-15T20:32:08.043Z,48.43
2019-05-15T20:34:37.932Z,48.77
2019-05-15T20:37:07.219Z,55.37
2019-05-15T20:39:38.198Z,54.43
2019-05-15T20:42:08.879Z,51.50
2019-05-15T20:44:38.381Z,51.83
2019-05-15T20:47:08.407Z,48.97
2019-05-15T20:49:39.288Z,53.80
2019-05-15T20:52:08.549Z,59.50
2019-05-15T20:54:39.521Z,63.63
2019-05-15T20:57:10.592Z,66.93
2019-05-15T20:59:41.696Z,71.83
2019-05-15T21:02:13.248Z,72.43
2019-05-15T21:04:44.303Z,76.77
2019-05-15T21:07:35.836Z,71.83
2019-05-15T21:09:55.234Z,77.07
2019-05-15T21:12:42.395Z,69.40
2019-05-15T21:15:29.718Z,58.13
2019-05-15T21:18:17.602Z,53.50
2019-05-15T21:21:10.188Z,51.27
2019-05-15T21:23:55.084Z,51.47
2019-05-15T21:26:42.271Z,50.70
2019-05-15T21:29:29.921Z,53.43
2019-05-15T21:32:19.649Z,63.90
2019-05-15T21:35:05.938Z,83.23
2019-05-15T21:37:53.292Z,97.93
2019-05-15T21:40:40.531Z,106.30
2019-05-15T21:43:27.955Z,102.60
2019-05-15T21:46:15.248Z,92.80
2019-05-15T21:49:02.531Z,84.53
2019-05-15T21:51:49.895Z,72.33
2019-05-15T21:54:38.537Z,64.97
2019-05-15T21:57:34.120Z,65.73
2019-05-15T22:00:20.488Z,63.73
2019-05-15T22:03:07.579Z,64.20
2019-05-15T22:05:58.036Z,71.80
2019-05-15T22:08:44.443Z,78.03
2019-05-15T22:11:31.816Z,82.43
2019-05-15T22:14:19.109Z,87.07
2019-05-15T22:17:09.031Z,90.23
2019-05-15T22:19:55.236Z,97.87
2019-05-15T22:22:42.624Z,98.63
2019-05-15T22:25:30.260Z,97.27
2019-05-15T22:28:17.429Z,102.70
2019-05-15T22:31:04.263Z,103.67
2019-05-15T22:33:51.231Z,105.33
2019-05-15T22:36:38.357Z,104.87
2019-05-15T22:39:25.414Z,96.93
2019-05-15T22:42:13.007Z,88.13
2019-05-15T22:45:00.524Z,73.97
2019-05-15T22:47:48.177Z,67.93
2019-05-15T22:50:35.643Z,74.83
2019-05-15T22:53:23.077Z,78.53
2019-05-15T22:56:10.098Z,82.00
2019-05-15T22:58:58.396Z,93.40
2019-05-15T23:01:45.409Z,91.07
2019-05-15T23:04:32.571Z,93.23
2019-05-15T23:07:19.609Z,89.17
2019-05-15T23:10:08.952Z,91.50
2019-05-15T23:12:58.084Z,102.13
2019-05-15T23:15:47.616Z,102.47
2019-05-15T23:18:34.573Z,102.43
2019-05-15T23:21:21.914Z,98.17
2019-05-15T23:24:09.231Z,95.57
2019-05-15T23:26:58.282Z,91.03
2019-05-15T23:29:45.787Z,88.83
2019-05-15T23:32:33.043Z,82.37
2019-05-15T23:35:19.802Z,79.40
2019-05-15T23:38:08.472Z,79.23
2019-05-15T23:40:55.376Z,76.60
2019-05-15T23:43:42.601Z,74.63
2019-05-15T23:46:29.679Z,72.17
2019-05-15T23:49:16.982Z,70.90
2019-05-15T23:52:03.987Z,66.73
2019-05-15T23:54:50.980Z,65.67
2019-05-15T23:57:39.355Z,68.93
